sensor_id;sensor_type;location;lat;lon;timestamp;P1;durP1;ratioP1;P2;durP2;ratioP2
28180;SDS011;15464;50.988;10.318;2023-05-14T00:00:03;10.38;;;9.38;;
28180;SDS011;15464;50.988;10.318;2023-05-14T00:02:31;10.20;;;8.88;;
28180;SDS011;15464;50.988;10.318;2023-05-14T00:04:58;10.88;;;9.88;;
28180;SDS011;15464;50.988;10.318;2023-05-14T00:07:25;10.48;;;9.48;;
28180;SDS011;15464;50.988;10.318;2023-05-14T00:09:58;11.20;;;9.98;;
28180;SDS011;15464;50.988;10.318;2023-05-14T00:14:52;9.88;;;8.88;;
28180;SDS011;15464;50.988;10.318;2023-05-14T00:17:19;12.30;;;10.90;;
28180;SDS011;15464;50.988;10.318;2023-05-14T00:19:46;11.57;;;10.48;;
28180;SDS011;15464;50.988;10.318;2023-05-14T00:22:13;11.45;;;10.23;;
28180;SDS011;15464;50.988;10.318;2023-05-14T00:24:39;12.15;;;10.73;;
28180;SDS011;15464;50.988;10.318;2023-05-14T01:20:58;10.57;;;9.68;;
28180;SDS011;15464;50.988;10.318;2023-05-14T06:03:29;12.68;;;9.88;;
28180;SDS011;15464;50.988;10.318;2023-05-14T06:05:56;11.18;;;10.07;;
28180;SDS011;15464;50.988;10.318;2023-05-14T06:08:23;10.75;;;9.75;;
28180;SDS011;15464;50.988;10.318;2023-05-14T06:10:49;11.63;;;10.52;;
28180;SDS011;15464;50.988;10.318;2023-05-14T06:13:16;11.50;;;10.50;;
28180;SDS011;15464;50.988;10.318;2023-05-14T06:15:43;10.23;;;9.43;;
28180;SDS011;15464;50.988;10.318;2023-05-14T06:18:10;11.05;;;10.13;;
28180;SDS011;15464;50.988;10.318;2023-05-14T06:20:36;10.80;;;9.80;;
28180;SDS011;15464;50.988;10.318;2023-05-14T06:23:03;9.77;;;8.77;;
28180;SDS011;15464;50.988;10.318;2023-05-14T06:25:31;9.90;;;9.00;;
28180;SDS011;15464;50.988;10.318;2023-05-14T06:27:57;9.50;;;8.70;;
28180;SDS011;15464;50.988;10.318;2023-05-14T06:30:24;9.98;;;8.98;;
28180;SDS011;15464;50.988;10.318;2023-05-14T06:32:51;9.85;;;8.95;;
28180;SDS011;15464;50.988;10.318;2023-05-14T06:35:18;10.52;;;9.45;;
28180;SDS011;15464;50.988;10.318;2023-05-14T06:37:45;10.88;;;9.77;;
28180;SDS011;15464;50.988;10.318;2023-05-14T06:40:11;10.48;;;9.48;;
28180;SDS011;15464;50.988;10.318;2023-05-14T06:42:40;10.52;;;8.85;;
28180;SDS011;15464;50.988;10.318;2023-05-14T06:45:07;9.50;;;8.50;;
28180;SDS011;15464;50.988;10.318;2023-05-14T06:47:34;9.73;;;8.82;;
28180;SDS011;15464;50.988;10.318;2023-05-14T06:50:01;9.15;;;8.23;;
28180;SDS011;15464;50.988;10.318;2023-05-14T06:52:28;10.00;;;8.30;;
28180;SDS011;15464;50.988;10.318;2023-05-14T06:54:55;8.63;;;7.78;;
28180;SDS011;15464;50.988;10.318;2023-05-14T06:57:22;8.95;;;8.05;;
28180;SDS011;15464;50.988;10.318;2023-05-14T06:59:49;8.43;;;7.38;;
28180;SDS011;15464;50.988;10.318;2023-05-14T07:02:15;8.68;;;7.88;;
28180;SDS011;15464;50.988;10.318;2023-05-14T07:04:42;9.93;;;9.02;;
28180;SDS011;15464;50.988;10.318;2023-05-14T07:07:09;10.38;;;8.13;;
28180;SDS011;15464;50.988;10.318;2023-05-14T07:09:38;8.95;;;8.07;;
28180;SDS011;15464;50.988;10.318;2023-05-14T07:12:05;7.88;;;6.82;;
28180;SDS011;15464;50.988;10.318;2023-05-14T07:14:32;8.98;;;7.78;;
28180;SDS011;15464;50.988;10.318;2023-05-14T07:16:59;8.27;;;7.47;;
28180;SDS011;15464;50.988;10.318;2023-05-14T07:19:26;8.73;;;7.43;;
28180;SDS011;15464;50.988;10.318;2023-05-14T07:21:55;8.23;;;7.35;;
28180;SDS011;15464;50.988;10.318;2023-05-14T07:24:23;7.90;;;6.90;;
28180;SDS011;15464;50.988;10.318;2023-05-14T07:26:49;7.40;;;6.70;;
28180;SDS011;15464;50.988;10.318;2023-05-14T07:29:16;7.05;;;6.35;;
28180;SDS011;15464;50.988;10.318;2023-05-14T07:31:43;8.38;;;6.68;;
28180;SDS011;15464;50.988;10.318;2023-05-14T07:34:10;6.85;;;6.25;;
28180;SDS011;15464;50.988;10.318;2023-05-14T07:36:38;7.50;;;6.80;;
28180;SDS011;15464;50.988;10.318;2023-05-14T07:39:04;7.28;;;6.68;;
28180;SDS011;15464;50.988;10.318;2023-05-14T07:41:31;6.78;;;6.18;;
28180;SDS011;15464;50.988;10.318;2023-05-14T07:43:58;7.45;;;6.75;;
28180;SDS011;15464;50.988;10.318;2023-05-14T07:46:24;6.70;;;6.10;;
28180;SDS011;15464;50.988;10.318;2023-05-14T07:48:51;7.53;;;6.80;;
28180;SDS011;15464;50.988;10.318;2023-05-14T07:51:18;7.28;;;5.93;;
28180;SDS011;15464;50.988;10.318;2023-05-14T07:53:45;7.43;;;6.57;;
28180;SDS011;15464;50.988;10.318;2023-05-14T07:56:11;5.63;;;5.13;;
28180;SDS011;15464;50.988;10.318;2023-05-14T07:58:38;7.38;;;5.85;;
28180;SDS011;15464;50.988;10.318;2023-05-14T08:01:05;5.70;;;5.20;;
28180;SDS011;15464;50.988;10.318;2023-05-14T08:06:01;6.38;;;5.82;;
28180;SDS011;15464;50.988;10.318;2023-05-14T08:08:27;6.32;;;5.72;;
28180;SDS011;15464;50.988;10.318;2023-05-14T08:10:54;6.85;;;6.25;;
28180;SDS011;15464;50.988;10.318;2023-05-14T08:13:21;7.47;;;6.47;;
28180;SDS011;15464;50.988;10.318;2023-05-14T08:15:47;6.78;;;6.07;;
28180;SDS011;15464;50.988;10.318;2023-05-14T08:18:14;6.25;;;5.70;;
28180;SDS011;15464;50.988;10.318;2023-05-14T08:20:41;6.47;;;5.35;;
28180;SDS011;15464;50.988;10.318;2023-05-14T08:23:08;7.03;;;5.57;;
28180;SDS011;15464;50.988;10.318;2023-05-14T08:25:34;6.15;;;5.55;;
28180;SDS011;15464;50.988;10.318;2023-05-14T08:28:01;7.07;;;6.45;;
28180;SDS011;15464;50.988;10.318;2023-05-14T08:30:28;6.28;;;5.65;;
28180;SDS011;15464;50.988;10.318;2023-05-14T08:32:55;7.90;;;6.25;;
28180;SDS011;15464;50.988;10.318;2023-05-14T08:35:21;5.97;;;5.00;;
28180;SDS011;15464;50.988;10.318;2023-05-14T08:37:48;5.68;;;5.20;;
28180;SDS011;15464;50.988;10.318;2023-05-14T08:40:15;7.93;;;5.50;;
28180;SDS011;15464;50.988;10.318;2023-05-14T08:42:43;5.07;;;4.68;;
28180;SDS011;15464;50.988;10.318;2023-05-14T08:45:13;5.38;;;4.70;;
28180;SDS011;15464;50.988;10.318;2023-05-14T08:47:42;6.20;;;5.30;;
28180;SDS011;15464;50.988;10.318;2023-05-14T08:50:12;6.13;;;4.40;;
28180;SDS011;15464;50.988;10.318;2023-05-14T08:52:39;5.40;;;4.80;;
28180;SDS011;15464;50.988;10.318;2023-05-14T08:55:06;5.72;;;5.22;;
28180;SDS011;15464;50.988;10.318;2023-05-14T08:57:33;5.97;;;4.80;;
28180;SDS011;15464;50.988;10.318;2023-05-14T09:00:01;5.50;;;4.13;;
28180;SDS011;15464;50.988;10.318;2023-05-14T09:02:39;7.45;;;4.38;;
28180;SDS011;15464;50.988;10.318;2023-05-14T09:05:07;4.95;;;3.95;;
28180;SDS011;15464;50.988;10.318;2023-05-14T09:07:35;4.72;;;4.22;;
28180;SDS011;15464;50.988;10.318;2023-05-14T09:10:01;6.35;;;4.55;;
28180;SDS011;15464;50.988;10.318;2023-05-14T09:12:29;5.28;;;4.43;;
28180;SDS011;15464;50.988;10.318;2023-05-14T09:14:56;4.40;;;3.92;;
28180;SDS011;15464;50.988;10.318;2023-05-14T09:17:24;5.15;;;4.40;;
28180;SDS011;15464;50.988;10.318;2023-05-14T09:19:52;6.90;;;4.55;;
28180;SDS011;15464;50.988;10.318;2023-05-14T09:22:20;4.63;;;4.22;;
28180;SDS011;15464;50.988;10.318;2023-05-14T09:25:08;5.45;;;4.30;;
28180;SDS011;15464;50.988;10.318;2023-05-14T09:27:37;4.45;;;4.05;;
28180;SDS011;15464;50.988;10.318;2023-05-14T09:30:04;4.72;;;3.78;;
28180;SDS011;15464;50.988;10.318;2023-05-14T09:32:36;4.32;;;3.92;;
28180;SDS011;15464;50.988;10.318;2023-05-14T09:35:13;5.22;;;4.72;;
28180;SDS011;15464;50.988;10.318;2023-05-14T09:37:45;4.90;;;4.50;;
28180;SDS011;15464;50.988;10.318;2023-05-14T09:40:13;4.80;;;4.03;;
28180;SDS011;15464;50.988;10.318;2023-05-14T09:42:40;5.07;;;3.70;;
28180;SDS011;15464;50.988;10.318;2023-05-14T09:45:08;5.47;;;4.40;;
28180;SDS011;15464;50.988;10.318;2023-05-14T09:47:35;5.82;;;3.80;;
28180;SDS011;15464;50.988;10.318;2023-05-14T09:50:03;5.95;;;3.90;;
28180;SDS011;15464;50.988;10.318;2023-05-14T09:52:31;8.20;;;4.43;;
28180;SDS011;15464;50.988;10.318;2023-05-14T09:54:58;4.90;;;4.30;;
28180;SDS011;15464;50.988;10.318;2023-05-14T09:57:26;6.90;;;4.20;;
28180;SDS011;15464;50.988;10.318;2023-05-14T09:59:53;4.90;;;4.22;;
28180;SDS011;15464;50.988;10.318;2023-05-14T10:02:24;5.05;;;4.65;;
28180;SDS011;15464;50.988;10.318;2023-05-14T10:04:53;6.28;;;4.25;;
28180;SDS011;15464;50.988;10.318;2023-05-14T10:07:25;4.45;;;3.97;;
28180;SDS011;15464;50.988;10.318;2023-05-14T10:09:56;4.32;;;3.92;;
28180;SDS011;15464;50.988;10.318;2023-05-14T10:12:31;4.68;;;3.72;;
28180;SDS011;15464;50.988;10.318;2023-05-14T10:15:21;6.70;;;4.28;;
28180;SDS011;15464;50.988;10.318;2023-05-14T10:17:54;4.32;;;3.92;;
28180;SDS011;15464;50.988;10.318;2023-05-14T10:20:24;8.10;;;4.30;;
28180;SDS011;15464;50.988;10.318;2023-05-14T10:22:52;3.75;;;3.17;;
28180;SDS011;15464;50.988;10.318;2023-05-14T10:25:19;3.45;;;3.15;;
28180;SDS011;15464;50.988;10.318;2023-05-14T10:27:47;3.92;;;2.97;;
28180;SDS011;15464;50.988;10.318;2023-05-14T10:30:14;4.32;;;3.03;;
28180;SDS011;15464;50.988;10.318;2023-05-14T10:32:40;3.83;;;2.80;;
28180;SDS011;15464;50.988;10.318;2023-05-14T10:35:16;6.07;;;3.10;;
28180;SDS011;15464;50.988;10.318;2023-05-14T10:37:46;4.72;;;2.95;;
28180;SDS011;15464;50.988;10.318;2023-05-14T10:40:16;3.08;;;2.88;;
28180;SDS011;15464;50.988;10.318;2023-05-14T10:42:44;6.13;;;2.97;;
28180;SDS011;15464;50.988;10.318;2023-05-14T10:45:12;3.15;;;2.67;;
28180;SDS011;15464;50.988;10.318;2023-05-14T10:47:44;4.45;;;3.15;;
28180;SDS011;15464;50.988;10.318;2023-05-14T10:50:15;3.08;;;2.78;;
28180;SDS011;15464;50.988;10.318;2023-05-14T10:52:43;3.03;;;2.70;;
28180;SDS011;15464;50.988;10.318;2023-05-14T10:55:14;4.43;;;3.00;;
28180;SDS011;15464;50.988;10.318;2023-05-14T10:57:45;3.95;;;2.80;;
28180;SDS011;15464;50.988;10.318;2023-05-14T11:00:12;3.92;;;2.90;;
28180;SDS011;15464;50.988;10.318;2023-05-14T11:02:41;4.40;;;2.63;;
28180;SDS011;15464;50.988;10.318;2023-05-14T11:05:09;3.00;;;2.70;;
28180;SDS011;15464;50.988;10.318;2023-05-14T11:07:43;2.35;;;2.15;;
28180;SDS011;15464;50.988;10.318;2023-05-14T11:10:12;3.85;;;2.83;;
28180;SDS011;15464;50.988;10.318;2023-05-14T11:12:49;2.83;;;2.63;;
28180;SDS011;15464;50.988;10.318;2023-05-14T11:15:20;2.78;;;2.38;;
28180;SDS011;15464;50.988;10.318;2023-05-14T11:17:49;3.05;;;2.75;;
28180;SDS011;15464;50.988;10.318;2023-05-14T11:20:16;3.35;;;2.90;;
28180;SDS011;15464;50.988;10.318;2023-05-14T11:22:44;7.30;;;4.72;;
28180;SDS011;15464;50.988;10.318;2023-05-14T11:25:12;4.50;;;2.92;;
28180;SDS011;15464;50.988;10.318;2023-05-14T11:27:41;3.47;;;2.97;;
28180;SDS011;15464;50.988;10.318;2023-05-14T11:30:12;2.85;;;2.65;;
28180;SDS011;15464;50.988;10.318;2023-05-14T11:32:41;3.30;;;3.00;;
28180;SDS011;15464;50.988;10.318;2023-05-14T11:35:09;2.80;;;2.40;;
28180;SDS011;15464;50.988;10.318;2023-05-14T11:37:36;4.43;;;2.90;;
28180;SDS011;15464;50.988;10.318;2023-05-14T11:40:06;2.70;;;2.50;;
28180;SDS011;15464;50.988;10.318;2023-05-14T11:42:37;3.42;;;2.83;;
28180;SDS011;15464;50.988;10.318;2023-05-14T11:45:04;4.07;;;2.80;;
28180;SDS011;15464;50.988;10.318;2023-05-14T11:47:31;3.22;;;2.63;;
28180;SDS011;15464;50.988;10.318;2023-05-14T11:49:58;2.88;;;2.55;;
28180;SDS011;15464;50.988;10.318;2023-05-14T11:52:26;4.85;;;3.10;;
28180;SDS011;15464;50.988;10.318;2023-05-14T11:54:52;5.30;;;2.80;;
28180;SDS011;15464;50.988;10.318;2023-05-14T11:57:20;5.72;;;2.78;;
28180;SDS011;15464;50.988;10.318;2023-05-14T11:59:48;3.10;;;2.60;;
28180;SDS011;15464;50.988;10.318;2023-05-14T12:02:21;3.35;;;3.05;;
28180;SDS011;15464;50.988;10.318;2023-05-14T12:04:49;3.50;;;2.50;;
28180;SDS011;15464;50.988;10.318;2023-05-14T12:07:19;3.13;;;2.83;;
28180;SDS011;15464;50.988;10.318;2023-05-14T12:09:47;3.58;;;2.70;;
28180;SDS011;15464;50.988;10.318;2023-05-14T12:12:17;4.65;;;2.78;;
28180;SDS011;15464;50.988;10.318;2023-05-14T12:14:45;3.15;;;2.85;;
28180;SDS011;15464;50.988;10.318;2023-05-14T12:17:19;2.88;;;2.55;;
28180;SDS011;15464;50.988;10.318;2023-05-14T12:19:47;6.95;;;2.53;;
28180;SDS011;15464;50.988;10.318;2023-05-14T12:22:17;3.80;;;2.65;;
28180;SDS011;15464;50.988;10.318;2023-05-14T12:24:54;6.15;;;3.65;;
28180;SDS011;15464;50.988;10.318;2023-05-14T12:27:22;4.20;;;3.80;;
28180;SDS011;15464;50.988;10.318;2023-05-14T12:29:57;3.00;;;2.55;;
28180;SDS011;15464;50.988;10.318;2023-05-14T12:32:48;3.47;;;3.13;;
28180;SDS011;15464;50.988;10.318;2023-05-14T12:35:19;3.80;;;3.15;;
28180;SDS011;15464;50.988;10.318;2023-05-14T12:37:46;4.43;;;3.20;;
28180;SDS011;15464;50.988;10.318;2023-05-14T12:40:13;8.20;;;4.60;;
28180;SDS011;15464;50.988;10.318;2023-05-14T12:42:40;4.38;;;3.90;;
28180;SDS011;15464;50.988;10.318;2023-05-14T12:45:06;4.50;;;3.47;;
28180;SDS011;15464;50.988;10.318;2023-05-14T12:47:34;4.05;;;3.25;;
28180;SDS011;15464;50.988;10.318;2023-05-14T12:50:01;3.65;;;3.00;;
28180;SDS011;15464;50.988;10.318;2023-05-14T12:52:29;5.22;;;2.63;;
28180;SDS011;15464;50.988;10.318;2023-05-14T12:55:05;3.83;;;2.00;;
28180;SDS011;15464;50.988;10.318;2023-05-14T12:57:35;2.83;;;1.80;;
28180;SDS011;15464;50.988;10.318;2023-05-14T13:00:03;3.60;;;1.87;;
28180;SDS011;15464;50.988;10.318;2023-05-14T13:02:39;3.78;;;3.13;;
28180;SDS011;15464;50.988;10.318;2023-05-14T13:05:08;4.78;;;2.65;;
28180;SDS011;15464;50.988;10.318;2023-05-14T13:07:36;2.60;;;2.40;;
28180;SDS011;15464;50.988;10.318;2023-05-14T13:10:03;2.80;;;2.60;;
28180;SDS011;15464;50.988;10.318;2023-05-14T13:12:30;2.88;;;2.50;;
28180;SDS011;15464;50.988;10.318;2023-05-14T13:14:57;3.13;;;2.80;;
28180;SDS011;15464;50.988;10.318;2023-05-14T13:17:24;4.25;;;3.22;;
28180;SDS011;15464;50.988;10.318;2023-05-14T13:19:51;5.50;;;3.17;;
28180;SDS011;15464;50.988;10.318;2023-05-14T13:22:17;3.90;;;3.25;;
28180;SDS011;15464;50.988;10.318;2023-05-14T13:24:44;3.15;;;2.50;;
28180;SDS011;15464;50.988;10.318;2023-05-14T13:27:11;3.22;;;2.90;;
28180;SDS011;15464;50.988;10.318;2023-05-14T13:29:38;6.63;;;2.85;;
28180;SDS011;15464;50.988;10.318;2023-05-14T13:32:04;4.15;;;2.40;;
28180;SDS011;15464;50.988;10.318;2023-05-14T13:34:31;2.92;;;2.70;;
28180;SDS011;15464;50.988;10.318;2023-05-14T13:36:58;4.70;;;2.90;;
28180;SDS011;15464;50.988;10.318;2023-05-14T13:39:25;3.20;;;2.72;;
28180;SDS011;15464;50.988;10.318;2023-05-14T13:41:55;3.15;;;2.78;;
28180;SDS011;15464;50.988;10.318;2023-05-14T13:44:22;3.13;;;2.83;;
28180;SDS011;15464;50.988;10.318;2023-05-14T13:46:49;3.55;;;2.30;;
28180;SDS011;15464;50.988;10.318;2023-05-14T13:49:16;3.38;;;2.67;;
28180;SDS011;15464;50.988;10.318;2023-05-14T13:51:43;3.55;;;2.90;;
28180;SDS011;15464;50.988;10.318;2023-05-14T13:54:10;5.20;;;2.67;;
28180;SDS011;15464;50.988;10.318;2023-05-14T13:56:36;4.72;;;2.53;;
28180;SDS011;15464;50.988;10.318;2023-05-14T13:59:03;5.53;;;3.20;;
28180;SDS011;15464;50.988;10.318;2023-05-14T14:01:30;5.63;;;3.20;;
28180;SDS011;15464;50.988;10.318;2023-05-14T14:03:57;6.40;;;3.25;;
28180;SDS011;15464;50.988;10.318;2023-05-14T14:06:24;3.83;;;2.95;;
28180;SDS011;15464;50.988;10.318;2023-05-14T14:08:52;3.90;;;2.80;;
28180;SDS011;15464;50.988;10.318;2023-05-14T14:11:19;3.28;;;2.97;;
28180;SDS011;15464;50.988;10.318;2023-05-14T14:13:46;3.35;;;3.05;;
28180;SDS011;15464;50.988;10.318;2023-05-14T14:16:12;3.88;;;3.47;;
28180;SDS011;15464;50.988;10.318;2023-05-14T14:18:39;4.80;;;2.70;;
28180;SDS011;15464;50.988;10.318;2023-05-14T14:21:08;3.17;;;2.88;;
28180;SDS011;15464;50.988;10.318;2023-05-14T14:23:35;3.05;;;2.55;;
28180;SDS011;15464;50.988;10.318;2023-05-14T14:26:02;2.67;;;2.38;;
28180;SDS011;15464;50.988;10.318;2023-05-14T14:28:29;3.00;;;2.30;;
28180;SDS011;15464;50.988;10.318;2023-05-14T14:30:56;2.40;;;2.20;;
28180;SDS011;15464;50.988;10.318;2023-05-14T14:33:23;3.58;;;2.40;;
28180;SDS011;15464;50.988;10.318;2023-05-14T14:35:49;3.28;;;2.42;;
28180;SDS011;15464;50.988;10.318;2023-05-14T14:38:17;4.40;;;2.80;;
28180;SDS011;15464;50.988;10.318;2023-05-14T14:40:43;3.88;;;2.67;;
28180;SDS011;15464;50.988;10.318;2023-05-14T14:43:11;2.50;;;2.30;;
28180;SDS011;15464;50.988;10.318;2023-05-14T14:45:38;3.50;;;2.40;;
28180;SDS011;15464;50.988;10.318;2023-05-14T14:48:38;2.78;;;2.47;;
28180;SDS011;15464;50.988;10.318;2023-05-14T14:51:05;2.30;;;2.10;;
28180;SDS011;15464;50.988;10.318;2023-05-14T14:53:33;3.08;;;2.40;;
28180;SDS011;15464;50.988;10.318;2023-05-14T14:56:01;4.38;;;2.90;;
28180;SDS011;15464;50.988;10.318;2023-05-14T14:58:28;3.45;;;2.80;;
28180;SDS011;15464;50.988;10.318;2023-05-14T15:00:56;3.85;;;2.53;;
28180;SDS011;15464;50.988;10.318;2023-05-14T15:03:23;3.53;;;2.25;;
28180;SDS011;15464;50.988;10.318;2023-05-14T15:05:51;3.63;;;2.38;;
28180;SDS011;15464;50.988;10.318;2023-05-14T15:08:19;2.40;;;2.15;;
28180;SDS011;15464;50.988;10.318;2023-05-14T15:10:46;2.88;;;2.42;;
28180;SDS011;15464;50.988;10.318;2023-05-14T15:13:12;2.15;;;2.05;;
28180;SDS011;15464;50.988;10.318;2023-05-14T15:15:39;3.45;;;2.47;;
28180;SDS011;15464;50.988;10.318;2023-05-14T15:18:06;4.18;;;2.70;;
28180;SDS011;15464;50.988;10.318;2023-05-14T15:20:32;3.88;;;2.90;;
28180;SDS011;15464;50.988;10.318;2023-05-14T15:22:59;4.82;;;3.05;;
28180;SDS011;15464;50.988;10.318;2023-05-14T15:25:26;4.80;;;2.85;;
28180;SDS011;15464;50.988;10.318;2023-05-14T15:27:53;4.45;;;3.40;;
28180;SDS011;15464;50.988;10.318;2023-05-14T15:30:20;4.32;;;3.47;;
28180;SDS011;15464;50.988;10.318;2023-05-14T15:32:46;6.03;;;3.40;;
28180;SDS011;15464;50.988;10.318;2023-05-14T15:35:13;4.03;;;3.00;;
28180;SDS011;15464;50.988;10.318;2023-05-14T15:37:40;3.25;;;2.83;;
28180;SDS011;15464;50.988;10.318;2023-05-14T15:40:08;3.30;;;3.00;;
28180;SDS011;15464;50.988;10.318;2023-05-14T15:42:37;4.80;;;3.08;;
28180;SDS011;15464;50.988;10.318;2023-05-14T15:45:05;3.65;;;2.85;;
28180;SDS011;15464;50.988;10.318;2023-05-14T15:47:32;3.95;;;2.88;;
28180;SDS011;15464;50.988;10.318;2023-05-14T15:49:59;3.08;;;2.88;;
28180;SDS011;15464;50.988;10.318;2023-05-14T15:52:26;5.03;;;3.20;;
28180;SDS011;15464;50.988;10.318;2023-05-14T15:54:53;3.03;;;2.72;;
28180;SDS011;15464;50.988;10.318;2023-05-14T15:57:22;3.00;;;2.70;;
28180;SDS011;15464;50.988;10.318;2023-05-14T15:59:49;6.03;;;2.65;;
28180;SDS011;15464;50.988;10.318;2023-05-14T16:02:16;3.58;;;2.50;;
28180;SDS011;15464;50.988;10.318;2023-05-14T16:04:43;4.63;;;2.75;;
28180;SDS011;15464;50.988;10.318;2023-05-14T16:07:14;3.70;;;2.70;;
28180;SDS011;15464;50.988;10.318;2023-05-14T16:09:41;3.33;;;2.90;;
28180;SDS011;15464;50.988;10.318;2023-05-14T16:12:08;5.28;;;2.53;;
28180;SDS011;15464;50.988;10.318;2023-05-14T16:14:35;4.15;;;2.55;;
28180;SDS011;15464;50.988;10.318;2023-05-14T16:17:03;2.78;;;2.53;;
28180;SDS011;15464;50.988;10.318;2023-05-14T16:19:30;3.28;;;2.72;;
28180;SDS011;15464;50.988;10.318;2023-05-14T16:21:56;4.53;;;3.17;;
28180;SDS011;15464;50.988;10.318;2023-05-14T16:24:23;3.78;;;2.90;;
28180;SDS011;15464;50.988;10.318;2023-05-14T16:26:50;2.80;;;2.58;;
28180;SDS011;15464;50.988;10.318;2023-05-14T16:29:16;4.05;;;3.00;;
28180;SDS011;15464;50.988;10.318;2023-05-14T16:31:43;7.78;;;3.42;;
28180;SDS011;15464;50.988;10.318;2023-05-14T16:34:10;5.05;;;3.00;;
28180;SDS011;15464;50.988;10.318;2023-05-14T16:36:37;3.60;;;3.10;;
28180;SDS011;15464;50.988;10.318;2023-05-14T16:39:03;5.00;;;3.05;;
28180;SDS011;15464;50.988;10.318;2023-05-14T16:41:34;4.53;;;3.38;;
28180;SDS011;15464;50.988;10.318;2023-05-14T16:44:01;3.20;;;2.90;;
28180;SDS011;15464;50.988;10.318;2023-05-14T16:46:27;3.70;;;3.40;;
28180;SDS011;15464;50.988;10.318;2023-05-14T16:48:54;3.53;;;2.80;;
28180;SDS011;15464;50.988;10.318;2023-05-14T16:51:21;4.28;;;2.90;;
28180;SDS011;15464;50.988;10.318;2023-05-14T16:53:48;3.92;;;3.00;;
28180;SDS011;15464;50.988;10.318;2023-05-14T16:56:16;4.40;;;3.13;;
28180;SDS011;15464;50.988;10.318;2023-05-14T16:58:43;3.28;;;2.97;;
28180;SDS011;15464;50.988;10.318;2023-05-14T17:01:09;5.38;;;3.55;;
28180;SDS011;15464;50.988;10.318;2023-05-14T17:03:36;6.22;;;3.22;;
28180;SDS011;15464;50.988;10.318;2023-05-14T17:06:02;5.28;;;3.45;;
28180;SDS011;15464;50.988;10.318;2023-05-14T17:08:29;6.15;;;3.15;;
28180;SDS011;15464;50.988;10.318;2023-05-14T17:10:58;3.63;;;3.33;;
28180;SDS011;15464;50.988;10.318;2023-05-14T17:13:25;3.78;;;2.90;;
28180;SDS011;15464;50.988;10.318;2023-05-14T17:15:52;3.40;;;2.80;;
28180;SDS011;15464;50.988;10.318;2023-05-14T17:18:19;4.50;;;3.08;;
28180;SDS011;15464;50.988;10.318;2023-05-14T17:20:45;3.40;;;3.00;;
28180;SDS011;15464;50.988;10.318;2023-05-14T17:23:12;4.60;;;3.20;;
28180;SDS011;15464;50.988;10.318;2023-05-14T17:25:39;4.63;;;3.47;;
28180;SDS011;15464;50.988;10.318;2023-05-14T17:28:05;5.85;;;3.50;;
28180;SDS011;15464;50.988;10.318;2023-05-14T17:30:32;4.03;;;3.28;;
28180;SDS011;15464;50.988;10.318;2023-05-14T17:32:59;5.60;;;3.53;;
28180;SDS011;15464;50.988;10.318;2023-05-14T17:35:25;4.40;;;4.00;;
28180;SDS011;15464;50.988;10.318;2023-05-14T17:37:52;4.97;;;3.63;;
28180;SDS011;15464;50.988;10.318;2023-05-14T17:40:19;3.90;;;3.17;;
28180;SDS011;15464;50.988;10.318;2023-05-14T17:42:46;5.28;;;4.03;;
28180;SDS011;15464;50.988;10.318;2023-05-14T17:45:12;4.40;;;3.58;;
28180;SDS011;15464;50.988;10.318;2023-05-14T17:48:18;4.05;;;3.65;;
28180;SDS011;15464;50.988;10.318;2023-05-14T17:50:45;5.20;;;3.67;;
28180;SDS011;15464;50.988;10.318;2023-05-14T17:53:12;5.15;;;3.30;;
28180;SDS011;15464;50.988;10.318;2023-05-14T17:55:39;6.55;;;3.85;;
28180;SDS011;15464;50.988;10.318;2023-05-14T17:58:12;4.07;;;3.67;;
28180;SDS011;15464;50.988;10.318;2023-05-14T18:00:40;5.95;;;4.22;;
28180;SDS011;15464;50.988;10.318;2023-05-14T18:03:08;5.85;;;4.40;;
28180;SDS011;15464;50.988;10.318;2023-05-14T18:05:35;5.93;;;4.78;;
28180;SDS011;15464;50.988;10.318;2023-05-14T18:08:02;5.72;;;4.85;;
28180;SDS011;15464;50.988;10.318;2023-05-14T18:10:29;6.15;;;4.72;;
28180;SDS011;15464;50.988;10.318;2023-05-14T18:12:56;11.05;;;5.10;;
28180;SDS011;15464;50.988;10.318;2023-05-14T18:15:22;5.15;;;4.05;;
28180;SDS011;15464;50.988;10.318;2023-05-14T18:17:51;12.63;;;4.78;;
28180;SDS011;15464;50.988;10.318;2023-05-14T18:20:18;7.03;;;4.97;;
28180;SDS011;15464;50.988;10.318;2023-05-14T18:22:45;5.05;;;4.55;;
28180;SDS011;15464;50.988;10.318;2023-05-14T18:25:11;5.47;;;4.90;;
28180;SDS011;15464;50.988;10.318;2023-05-14T18:27:38;5.57;;;3.70;;
28180;SDS011;15464;50.988;10.318;2023-05-14T18:30:12;5.40;;;4.40;;
28180;SDS011;15464;50.988;10.318;2023-05-14T18:32:41;5.20;;;3.80;;
28180;SDS011;15464;50.988;10.318;2023-05-14T18:35:10;5.00;;;4.50;;
28180;SDS011;15464;50.988;10.318;2023-05-14T18:37:37;7.68;;;6.13;;
28180;SDS011;15464;50.988;10.318;2023-05-14T18:40:04;7.68;;;5.80;;
28180;SDS011;15464;50.988;10.318;2023-05-14T18:42:32;9.25;;;8.02;;
28180;SDS011;15464;50.988;10.318;2023-05-14T18:44:59;8.13;;;7.32;;
28180;SDS011;15464;50.988;10.318;2023-05-14T18:47:26;8.32;;;6.90;;
28180;SDS011;15464;50.988;10.318;2023-05-14T18:49:53;7.32;;;6.68;;
28180;SDS011;15464;50.988;10.318;2023-05-14T18:54:49;6.40;;;5.85;;
28180;SDS011;15464;50.988;10.318;2023-05-14T18:57:16;6.88;;;6.18;;
28180;SDS011;15464;50.988;10.318;2023-05-14T18:59:43;8.80;;;6.25;;
28180;SDS011;15464;50.988;10.318;2023-05-14T19:02:10;6.60;;;6.00;;
28180;SDS011;15464;50.988;10.318;2023-05-14T19:04:39;6.93;;;6.32;;
28180;SDS011;15464;50.988;10.318;2023-05-14T19:07:17;7.07;;;6.40;;
28180;SDS011;15464;50.988;10.318;2023-05-14T19:09:44;6.45;;;5.85;;
28180;SDS011;15464;50.988;10.318;2023-05-14T19:12:11;5.95;;;5.20;;
28180;SDS011;15464;50.988;10.318;2023-05-14T19:14:37;5.90;;;4.97;;
28180;SDS011;15464;50.988;10.318;2023-05-14T19:17:04;7.53;;;6.88;;
28180;SDS011;15464;50.988;10.318;2023-05-14T19:19:31;8.55;;;6.85;;
28180;SDS011;15464;50.988;10.318;2023-05-14T19:21:58;7.65;;;6.60;;
28180;SDS011;15464;50.988;10.318;2023-05-14T19:24:24;7.65;;;6.90;;
28180;SDS011;15464;50.988;10.318;2023-05-14T19:26:51;9.25;;;7.68;;
28180;SDS011;15464;50.988;10.318;2023-05-14T19:29:18;11.20;;;8.68;;
28180;SDS011;15464;50.988;10.318;2023-05-14T19:31:44;10.50;;;8.75;;
28180;SDS011;15464;50.988;10.318;2023-05-14T19:34:12;8.50;;;7.20;;
28180;SDS011;15464;50.988;10.318;2023-05-14T19:36:39;7.63;;;6.32;;
28180;SDS011;15464;50.988;10.318;2023-05-14T19:39:06;6.95;;;5.53;;
28180;SDS011;15464;50.988;10.318;2023-05-14T19:41:33;8.93;;;6.07;;
28180;SDS011;15464;50.988;10.318;2023-05-14T19:44:00;9.75;;;6.70;;
28180;SDS011;15464;50.988;10.318;2023-05-14T19:46:26;7.75;;;7.00;;
28180;SDS011;15464;50.988;10.318;2023-05-14T19:48:53;7.90;;;7.00;;
28180;SDS011;15464;50.988;10.318;2023-05-14T19:51:20;6.55;;;6.00;;
28180;SDS011;15464;50.988;10.318;2023-05-14T19:53:46;7.10;;;6.38;;
28180;SDS011;15464;50.988;10.318;2023-05-14T19:56:13;7.15;;;6.55;;
28180;SDS011;15464;50.988;10.318;2023-05-14T19:58:40;7.80;;;7.05;;
28180;SDS011;15464;50.988;10.318;2023-05-14T20:01:07;9.23;;;8.25;;
28180;SDS011;15464;50.988;10.318;2023-05-14T20:03:34;9.05;;;7.07;;
28180;SDS011;15464;50.988;10.318;2023-05-14T20:06:01;7.65;;;6.90;;
28180;SDS011;15464;50.988;10.318;2023-05-14T20:08:27;8.85;;;7.05;;
28180;SDS011;15464;50.988;10.318;2023-05-14T20:10:54;8.00;;;7.20;;
28180;SDS011;15464;50.988;10.318;2023-05-14T20:13:21;7.75;;;7.15;;
28180;SDS011;15464;50.988;10.318;2023-05-14T20:15:50;9.15;;;8.35;;
28180;SDS011;15464;50.988;10.318;2023-05-14T20:18:17;7.32;;;6.63;;